Αρχική σελίδα
METAR-TAF:

METAR-TAF

Αεροδρόμια :

Γιαουντέ, Καμερούν

γεωγραφικό πλάτος: 03-50N, γεωγραφικό μήκος: 011-31E, υψόμετρο: 751 μ

Παρών καιρός

Η αναφορά έγινε 22 λεπτά πριν, στις 00:00 UTC
Θερμοκρασία 22°C
Υγρασία 94%
Πίεση 1016 hPa
Ορατότητα: 6000 μ
Αρκετά νέφη σε ύψος 600 πόδια

METAR: FKYS 220000Z /////KT 6000 BKN006 22/21 Q1016 NOSIG

Χρόνος: 01:22 (00:22 UTC)

Πρόγνωση Καιρού

Η αναφορά έγινε 1 ώρα και 22 λεπτά πριν, στις 23:00 UTC
Η πρόγνωση ισχύει από τις 22 στις 00 UTC έως τις 22 στις 24 UTC
Άνεμος 5 kt από μεταβλητές κατευθύνσεις
Ορατότητα: 6000 μ
Αρκετά νέφη σε ύψος 600 πόδια
Προσωρινά
από 22 στις 02 UTC έως τις 22 στις 07 UTC
Ορατότητα: 2000 μ
Αχλής
Καθιστάμενος
από 22 στις 07 UTC έως τις 22 στις 11 UTC
Αρκετά νέφη σε ύψος 2000 πόδια

TAF: FKYS 212300Z 2200/2224 VRB05KT 6000 BKN006 TEMPO 2202/2207 2000 BR BECMG 2207/2211 BKN020

Μετεωρολογικές αναφορές και προγνώσεις για περισσότερα από 4000 αεροδρόμια (δελτία METAR και TAF).

Οι διαθέσιμοι σταθμοί απεικονίζονται στο χάρτη με κίτρινες και κόκκινες κουκκίδες.

Μετακινήστε το ποντίκι πάνω από τις κουκκίδες για να δείτε το όνομα του σταθμού.

Στη συνέχεια, κάντε κλικ για να δείτε τις μετεωρολογικές αναφορές και τις προγνώσεις καιρού.

Για να αλλάξετε το χάρτη: κάντε κλικ στα πράσινα κουμπιά με τον μαύρο σταυρό για να ζουμάρετε, στο πράσινο κουμπί με την παύλα για να αφαιρέσετε το ζουμ ή στα πράσινα βέλη για να αντιπαραβάλλετε χάρτες.


METAR-TAF: